sensor_id;sensor_type;location;lat;lon;timestamp;pressure;altitude;pressure_sealevel;temperature;humidity
76627;BME280;65519;53.230;10.390;2023-03-14T00:00:31;98533.94;;;11.63;70.65
76627;BME280;65519;53.230;10.390;2023-03-14T00:02:56;98550.44;;;11.76;70.27
76627;BME280;65519;53.230;10.390;2023-03-14T00:05:22;98556.38;;;11.78;70.47
76627;BME280;65519;53.230;10.390;2023-03-14T00:07:48;98564.69;;;11.81;70.29
76627;BME280;65519;53.230;10.390;2023-03-14T00:10:14;98545.47;;;11.78;70.48
76627;BME280;65519;53.230;10.390;2023-03-14T00:12:40;98560.66;;;11.87;70.43
76627;BME280;65519;53.230;10.390;2023-03-14T00:15:07;98548.78;;;11.83;70.48
76627;BME280;65519;53.230;10.390;2023-03-14T00:17:34;98545.25;;;11.83;70.33
76627;BME280;65519;53.230;10.390;2023-03-14T00:19:59;98545.25;;;11.83;70.08
76627;BME280;65519;53.230;10.390;2023-03-14T00:22:34;98537.72;;;11.80;70.43
76627;BME280;65519;53.230;10.390;2023-03-14T00:25:00;98542.38;;;11.79;70.95
76627;BME280;65519;53.230;10.390;2023-03-14T00:27:26;98554.09;;;11.80;70.41
76627;BME280;65519;53.230;10.390;2023-03-14T00:29:51;98556.84;;;11.71;71.11
76627;BME280;65519;53.230;10.390;2023-03-14T00:32:17;98571.16;;;11.77;70.82
76627;BME280;65519;53.230;10.390;2023-03-14T00:34:42;98561.03;;;11.77;70.40
76627;BME280;65519;53.230;10.390;2023-03-14T00:37:07;98548.63;;;11.80;70.97
76627;BME280;65519;53.230;10.390;2023-03-14T00:39:33;98534.66;;;11.81;71.66
76627;BME280;65519;53.230;10.390;2023-03-14T00:41:58;98527.28;;;11.82;71.47
76627;BME280;65519;53.230;10.390;2023-03-14T00:44:24;98516.22;;;11.69;72.92
76627;BME280;65519;53.230;10.390;2023-03-14T00:46:49;98504.88;;;11.67;72.58
76627;BME280;65519;53.230;10.390;2023-03-14T00:49:15;98497.31;;;11.64;72.93
76627;BME280;65519;53.230;10.390;2023-03-14T00:51:42;98502.63;;;11.61;72.99
76627;BME280;65519;53.230;10.390;2023-03-14T00:54:07;98518.28;;;11.43;74.27
76627;BME280;65519;53.230;10.390;2023-03-14T00:56:32;98527.97;;;11.32;74.58
76627;BME280;65519;53.230;10.390;2023-03-14T00:58:58;98534.72;;;11.26;74.24
76627;BME280;65519;53.230;10.390;2023-03-14T01:01:24;98550.44;;;11.29;73.94
76627;BME280;65519;53.230;10.390;2023-03-14T01:03:54;98554.78;;;11.21;74.14
76627;BME280;65519;53.230;10.390;2023-03-14T01:06:23;98561.03;;;11.22;73.84
76627;BME280;65519;53.230;10.390;2023-03-14T01:08:48;98559.28;;;11.17;73.48
76627;BME280;65519;53.230;10.390;2023-03-14T01:11:17;98555.91;;;11.20;73.54
76627;BME280;65519;53.230;10.390;2023-03-14T01:13:42;98568.44;;;11.21;73.00
76627;BME280;65519;53.230;10.390;2023-03-14T01:16:09;98566.66;;;11.17;72.58
76627;BME280;65519;53.230;10.390;2023-03-14T01:18:35;98577.41;;;11.22;72.96
76627;BME280;65519;53.230;10.390;2023-03-14T01:21:03;98571.00;;;11.18;73.00
76627;BME280;65519;53.230;10.390;2023-03-14T01:23:28;98556.22;;;11.19;72.68
76627;BME280;65519;53.230;10.390;2023-03-14T01:25:54;98541.31;;;11.16;73.12
76627;BME280;65519;53.230;10.390;2023-03-14T01:28:19;98537.16;;;11.19;73.02
76627;BME280;65519;53.230;10.390;2023-03-14T01:30:45;98530.41;;;11.16;72.87
76627;BME280;65519;53.230;10.390;2023-03-14T01:33:10;98522.88;;;11.22;72.67
76627;BME280;65519;53.230;10.390;2023-03-14T01:35:37;98529.16;;;11.14;72.91
76627;BME280;65519;53.230;10.390;2023-03-14T01:38:03;98530.88;;;11.18;73.00
76627;BME280;65519;53.230;10.390;2023-03-14T01:40:28;98542.00;;;11.13;72.92
76627;BME280;65519;53.230;10.390;2023-03-14T01:43:00;98531.41;;;11.12;73.08
76627;BME280;65519;53.230;10.390;2023-03-14T01:48:23;98513.59;;;11.06;73.42
76627;BME280;65519;53.230;10.390;2023-03-14T01:50:49;98508.16;;;11.06;73.74
76627;BME280;65519;53.230;10.390;2023-03-14T01:53:14;98504.94;;;11.04;74.00
76627;BME280;65519;53.230;10.390;2023-03-14T01:55:40;98500.47;;;10.99;74.94
76627;BME280;65519;53.230;10.390;2023-03-14T01:58:06;98514.78;;;10.87;76.00
76627;BME280;65519;53.230;10.390;2023-03-14T02:00:32;98496.19;;;10.72;78.05
76627;BME280;65519;53.230;10.390;2023-03-14T02:03:13;98500.84;;;10.63;78.96
76627;BME280;65519;53.230;10.390;2023-03-14T02:05:41;98505.22;;;10.47;80.09
76627;BME280;65519;53.230;10.390;2023-03-14T02:08:10;98508.56;;;10.44;80.48
76627;BME280;65519;53.230;10.390;2023-03-14T02:10:42;98502.63;;;10.42;81.13
76627;BME280;65519;53.230;10.390;2023-03-14T02:13:10;98480.22;;;10.36;81.63
76627;BME280;65519;53.230;10.390;2023-03-14T02:15:36;98451.53;;;10.39;81.49
76627;BME280;65519;53.230;10.390;2023-03-14T02:18:03;98448.97;;;10.34;81.65
76627;BME280;65519;53.230;10.390;2023-03-14T02:23:29;98433.44;;;10.34;81.85
76627;BME280;65519;53.230;10.390;2023-03-14T02:26:07;98432.66;;;10.34;81.77
76627;BME280;65519;53.230;10.390;2023-03-14T02:28:34;98435.19;;;10.30;82.37
76627;BME280;65519;53.230;10.390;2023-03-14T02:30:59;98428.16;;;10.29;82.63
76627;BME280;65519;53.230;10.390;2023-03-14T02:33:26;98423.66;;;10.33;82.01
76627;BME280;65519;53.230;10.390;2023-03-14T02:35:59;98424.47;;;10.34;82.31
76627;BME280;65519;53.230;10.390;2023-03-14T02:38:44;98442.88;;;10.28;82.62
76627;BME280;65519;53.230;10.390;2023-03-14T02:41:11;98446.09;;;10.21;82.48
76627;BME280;65519;53.230;10.390;2023-03-14T02:43:37;98467.72;;;10.18;82.78
76627;BME280;65519;53.230;10.390;2023-03-14T02:46:03;98470.59;;;10.21;82.91
76627;BME280;65519;53.230;10.390;2023-03-14T02:48:33;98477.97;;;10.21;82.63
76627;BME280;65519;53.230;10.390;2023-03-14T02:51:01;98482.13;;;10.18;82.48
76627;BME280;65519;53.230;10.390;2023-03-14T02:53:32;98486.94;;;10.30;81.48
76627;BME280;65519;53.230;10.390;2023-03-14T02:55:58;98479.88;;;10.29;81.65
76627;BME280;65519;53.230;10.390;2023-03-14T02:58:23;98486.59;;;10.14;81.78
76627;BME280;65519;53.230;10.390;2023-03-14T03:00:49;98472.34;;;10.09;82.12
76627;BME280;65519;53.230;10.390;2023-03-14T03:03:15;98469.16;;;10.15;81.89
76627;BME280;65519;53.230;10.390;2023-03-14T03:05:40;98466.13;;;10.26;81.70
76627;BME280;65519;53.230;10.390;2023-03-14T03:08:08;98442.56;;;10.30;80.13
76627;BME280;65519;53.230;10.390;2023-03-14T03:10:33;98454.44;;;10.25;79.52
76627;BME280;65519;53.230;10.390;2023-03-14T03:12:58;98437.78;;;10.27;80.00
76627;BME280;65519;53.230;10.390;2023-03-14T03:15:24;98439.22;;;10.24;79.90
76627;BME280;65519;53.230;10.390;2023-03-14T03:17:49;98428.47;;;10.36;79.50
76627;BME280;65519;53.230;10.390;2023-03-14T03:20:15;98414.69;;;10.41;78.72
76627;BME280;65519;53.230;10.390;2023-03-14T03:22:40;98416.78;;;10.36;78.72
76627;BME280;65519;53.230;10.390;2023-03-14T03:25:07;98415.19;;;10.35;77.98
76627;BME280;65519;53.230;10.390;2023-03-14T03:27:35;98415.34;;;10.30;78.06
76627;BME280;65519;53.230;10.390;2023-03-14T03:30:01;98410.38;;;10.32;77.70
76627;BME280;65519;53.230;10.390;2023-03-14T03:32:27;98413.59;;;10.34;77.94
76627;BME280;65519;53.230;10.390;2023-03-14T03:34:52;98393.22;;;10.40;77.47
76627;BME280;65519;53.230;10.390;2023-03-14T03:37:18;98406.34;;;10.46;77.22
76627;BME280;65519;53.230;10.390;2023-03-14T03:39:43;98395.13;;;10.48;76.54
76627;BME280;65519;53.230;10.390;2023-03-14T03:42:09;98383.69;;;10.63;75.83
76627;BME280;65519;53.230;10.390;2023-03-14T03:44:35;98385.78;;;10.66;75.58
76627;BME280;65519;53.230;10.390;2023-03-14T03:47:00;98397.97;;;10.60;75.71
76627;BME280;65519;53.230;10.390;2023-03-14T03:49:31;98396.69;;;10.66;75.44
76627;BME280;65519;53.230;10.390;2023-03-14T03:51:57;98385.13;;;10.69;75.17
76627;BME280;65519;53.230;10.390;2023-03-14T03:54:23;98389.31;;;10.67;76.01
76627;BME280;65519;53.230;10.390;2023-03-14T03:56:48;98380.13;;;10.71;74.91
76627;BME280;65519;53.230;10.390;2023-03-14T03:59:13;98382.22;;;10.74;75.22
76627;BME280;65519;53.230;10.390;2023-03-14T04:01:39;98378.09;;;10.68;75.06
76627;BME280;65519;53.230;10.390;2023-03-14T04:04:05;98379.81;;;10.73;74.34
76627;BME280;65519;53.230;10.390;2023-03-14T04:06:30;98374.56;;;10.68;74.86
76627;BME280;65519;53.230;10.390;2023-03-14T04:08:55;98366.19;;;10.73;73.82
76627;BME280;65519;53.230;10.390;2023-03-14T04:11:21;98369.06;;;10.76;73.38
76627;BME280;65519;53.230;10.390;2023-03-14T04:13:46;98356.09;;;10.73;74.04
76627;BME280;65519;53.230;10.390;2023-03-14T04:16:18;98354.16;;;10.74;73.43
76627;BME280;65519;53.230;10.390;2023-03-14T04:18:43;98360.63;;;10.69;73.66
76627;BME280;65519;53.230;10.390;2023-03-14T04:21:09;98360.47;;;10.66;73.71
76627;BME280;65519;53.230;10.390;2023-03-14T04:23:34;98341.59;;;10.52;73.73
76627;BME280;65519;53.230;10.390;2023-03-14T04:26:00;98359.81;;;10.69;73.49
76627;BME280;65519;53.230;10.390;2023-03-14T04:28:25;98355.81;;;10.66;73.71
76627;BME280;65519;53.230;10.390;2023-03-14T04:30:51;98361.59;;;10.65;73.05
76627;BME280;65519;53.230;10.390;2023-03-14T04:33:16;98364.16;;;10.70;72.97
76627;BME280;65519;53.230;10.390;2023-03-14T04:35:45;98354.97;;;10.74;72.54
76627;BME280;65519;53.230;10.390;2023-03-14T04:38:12;98353.25;;;10.70;73.53
76627;BME280;65519;53.230;10.390;2023-03-14T04:40:39;98346.19;;;10.69;73.17
76627;BME280;65519;53.230;10.390;2023-03-14T04:43:04;98356.41;;;10.72;73.06
76627;BME280;65519;53.230;10.390;2023-03-14T04:45:30;98349.03;;;10.81;72.59
76627;BME280;65519;53.230;10.390;2023-03-14T04:47:55;98344.97;;;10.87;71.73
76627;BME280;65519;53.230;10.390;2023-03-14T04:50:21;98340.97;;;10.84;71.57
76627;BME280;65519;53.230;10.390;2023-03-14T04:52:46;98337.34;;;10.80;72.94
76627;BME280;65519;53.230;10.390;2023-03-14T04:55:11;98338.63;;;10.74;73.31
76627;BME280;65519;53.230;10.390;2023-03-14T04:57:37;98339.00;;;10.93;71.10
76627;BME280;65519;53.230;10.390;2023-03-14T05:00:03;98336.97;;;10.90;71.92
76627;BME280;65519;53.230;10.390;2023-03-14T05:02:31;98339.22;;;10.88;71.87
76627;BME280;65519;53.230;10.390;2023-03-14T05:04:57;98330.88;;;10.85;72.10
76627;BME280;65519;53.230;10.390;2023-03-14T05:07:22;98336.47;;;10.88;71.41
76627;BME280;65519;53.230;10.390;2023-03-14T05:09:47;98337.94;;;10.86;72.12
76627;BME280;65519;53.230;10.390;2023-03-14T05:12:13;98334.88;;;10.87;71.12
76627;BME280;65519;53.230;10.390;2023-03-14T05:14:38;98337.34;;;10.80;72.01
76627;BME280;65519;53.230;10.390;2023-03-14T05:17:04;98330.28;;;10.79;72.22
76627;BME280;65519;53.230;10.390;2023-03-14T05:19:30;98316.78;;;10.83;71.23
76627;BME280;65519;53.230;10.390;2023-03-14T05:21:56;98309.13;;;10.76;72.04
76627;BME280;65519;53.230;10.390;2023-03-14T05:24:21;98304.19;;;10.70;73.10
76627;BME280;65519;53.230;10.390;2023-03-14T05:26:46;98310.94;;;10.64;72.80
76627;BME280;65519;53.230;10.390;2023-03-14T05:29:12;98307.47;;;10.54;73.67
76627;BME280;65519;53.230;10.390;2023-03-14T05:31:37;98312.75;;;10.51;73.19
76627;BME280;65519;53.230;10.390;2023-03-14T05:34:03;98312.31;;;10.49;73.05
76627;BME280;65519;53.230;10.390;2023-03-14T05:36:28;98317.75;;;10.49;73.38
76627;BME280;65519;53.230;10.390;2023-03-14T05:38:54;98318.69;;;10.53;73.86
76627;BME280;65519;53.230;10.390;2023-03-14T05:41:19;98309.22;;;10.59;72.39
76627;BME280;65519;53.230;10.390;2023-03-14T05:43:44;98308.25;;;10.55;72.65
76627;BME280;65519;53.230;10.390;2023-03-14T05:46:10;98308.63;;;10.45;73.24
76627;BME280;65519;53.230;10.390;2023-03-14T05:48:35;98307.66;;;10.41;72.85
76627;BME280;65519;53.230;10.390;2023-03-14T05:51:01;98318.75;;;10.36;73.12
76627;BME280;65519;53.230;10.390;2023-03-14T05:53:27;98310.41;;;10.32;73.06
76627;BME280;65519;53.230;10.390;2023-03-14T05:55:55;98312.34;;;10.32;73.07
76627;BME280;65519;53.230;10.390;2023-03-14T05:58:20;98310.59;;;10.18;74.11
76627;BME280;65519;53.230;10.390;2023-03-14T06:00:46;98323.41;;;10.18;74.32
76627;BME280;65519;53.230;10.390;2023-03-14T06:03:12;98342.63;;;10.13;74.06
76627;BME280;65519;53.230;10.390;2023-03-14T06:05:37;98336.41;;;10.04;74.50
76627;BME280;65519;53.230;10.390;2023-03-14T06:08:02;98343.13;;;9.98;75.27
76627;BME280;65519;53.230;10.390;2023-03-14T06:10:28;98332.22;;;9.98;74.93
76627;BME280;65519;53.230;10.390;2023-03-14T06:12:53;98336.06;;;9.97;75.12
76627;BME280;65519;53.230;10.390;2023-03-14T06:15:19;98330.94;;;9.95;74.70
76627;BME280;65519;53.230;10.390;2023-03-14T06:17:44;98344.25;;;9.88;75.50
76627;BME280;65519;53.230;10.390;2023-03-14T06:20:10;98340.41;;;9.89;75.29
76627;BME280;65519;53.230;10.390;2023-03-14T06:22:35;98337.69;;;9.89;75.08
76627;BME280;65519;53.230;10.390;2023-03-14T06:25:01;98331.44;;;9.88;74.35
76627;BME280;65519;53.230;10.390;2023-03-14T06:27:26;98345.25;;;9.83;74.92
76627;BME280;65519;53.230;10.390;2023-03-14T06:29:51;98344.09;;;9.84;74.92
76627;BME280;65519;53.230;10.390;2023-03-14T06:32:17;98345.69;;;9.85;74.71
76627;BME280;65519;53.230;10.390;2023-03-14T06:34:43;98349.53;;;9.84;74.76
76627;BME280;65519;53.230;10.390;2023-03-14T06:37:08;98351.00;;;9.82;74.52
76627;BME280;65519;53.230;10.390;2023-03-14T06:39:34;98351.78;;;9.82;75.42
76627;BME280;65519;53.230;10.390;2023-03-14T06:41:59;98362.50;;;9.79;74.86
76627;BME280;65519;53.230;10.390;2023-03-14T06:44:24;98361.72;;;9.78;73.95
76627;BME280;65519;53.230;10.390;2023-03-14T06:46:50;98363.16;;;9.76;74.89
76627;BME280;65519;53.230;10.390;2023-03-14T06:49:15;98369.38;;;9.76;74.12
76627;BME280;65519;53.230;10.390;2023-03-14T06:51:41;98371.16;;;9.81;74.43
76627;BME280;65519;53.230;10.390;2023-03-14T06:54:06;98384.28;;;9.79;73.91
76627;BME280;65519;53.230;10.390;2023-03-14T06:56:31;98380.44;;;9.80;74.02
76627;BME280;65519;53.230;10.390;2023-03-14T06:58:57;98386.03;;;9.75;74.50
76627;BME280;65519;53.230;10.390;2023-03-14T07:01:27;98382.69;;;9.78;74.75
76627;BME280;65519;53.230;10.390;2023-03-14T07:03:53;98375.81;;;9.72;75.63
76627;BME280;65519;53.230;10.390;2023-03-14T07:06:19;98383.78;;;9.68;75.17
76627;BME280;65519;53.230;10.390;2023-03-14T07:08:45;98381.69;;;9.57;76.94
76627;BME280;65519;53.230;10.390;2023-03-14T07:11:10;98379.28;;;9.46;77.63
76627;BME280;65519;53.230;10.390;2023-03-14T07:13:37;98389.53;;;9.41;77.83
76627;BME280;65519;53.230;10.390;2023-03-14T07:16:03;98389.34;;;9.37;78.70
76627;BME280;65519;53.230;10.390;2023-03-14T07:18:29;98392.06;;;9.29;79.15
76627;BME280;65519;53.230;10.390;2023-03-14T07:20:54;98393.78;;;9.16;81.21
76627;BME280;65519;53.230;10.390;2023-03-14T07:23:19;98395.19;;;9.05;82.15
76627;BME280;65519;53.230;10.390;2023-03-14T07:25:45;98397.72;;;9.01;83.59
76627;BME280;65519;53.230;10.390;2023-03-14T07:28:10;98400.94;;;9.03;82.31
76627;BME280;65519;53.230;10.390;2023-03-14T07:30:36;98396.94;;;9.09;82.80
76627;BME280;65519;53.230;10.390;2023-03-14T07:33:01;98401.13;;;9.07;82.81
76627;BME280;65519;53.230;10.390;2023-03-14T07:35:27;98402.97;;;8.98;82.32
76627;BME280;65519;53.230;10.390;2023-03-14T07:37:52;98403.47;;;9.00;82.94
76627;BME280;65519;53.230;10.390;2023-03-14T07:40:17;98404.16;;;9.05;81.58
76627;BME280;65519;53.230;10.390;2023-03-14T07:42:43;98405.44;;;9.08;81.82
76627;BME280;65519;53.230;10.390;2023-03-14T07:45:10;98402.75;;;9.25;80.89
76627;BME280;65519;53.230;10.390;2023-03-14T07:47:35;98398.44;;;9.24;80.40
76627;BME280;65519;53.230;10.390;2023-03-14T07:50:01;98397.16;;;9.30;79.85
76627;BME280;65519;53.230;10.390;2023-03-14T07:52:27;98399.63;;;9.40;79.89
76627;BME280;65519;53.230;10.390;2023-03-14T07:54:53;98406.47;;;9.46;79.15
76627;BME280;65519;53.230;10.390;2023-03-14T07:57:18;98398.03;;;9.57;78.12
76627;BME280;65519;53.230;10.390;2023-03-14T07:59:43;98395.47;;;9.60;77.96
76627;BME280;65519;53.230;10.390;2023-03-14T08:02:12;98390.53;;;9.71;77.74
76627;BME280;65519;53.230;10.390;2023-03-14T08:04:39;98396.91;;;9.75;77.85
76627;BME280;65519;53.230;10.390;2023-03-14T08:07:05;98385.88;;;9.80;77.08
76627;BME280;65519;53.230;10.390;2023-03-14T08:09:30;98397.25;;;9.91;76.57
76627;BME280;65519;53.230;10.390;2023-03-14T08:11:56;98382.50;;;10.00;76.47
76627;BME280;65519;53.230;10.390;2023-03-14T08:14:21;98387.13;;;10.08;75.51
76627;BME280;65519;53.230;10.390;2023-03-14T08:16:49;98383.47;;;10.13;75.26
76627;BME280;65519;53.230;10.390;2023-03-14T08:19:15;98384.44;;;10.26;75.11
76627;BME280;65519;53.230;10.390;2023-03-14T08:21:40;98382.97;;;10.37;74.75
76627;BME280;65519;53.230;10.390;2023-03-14T08:24:06;98375.75;;;10.41;74.63
76627;BME280;65519;53.230;10.390;2023-03-14T08:26:31;98386.00;;;10.44;73.77
76627;BME280;65519;53.230;10.390;2023-03-14T08:28:56;98380.22;;;10.45;73.41
76627;BME280;65519;53.230;10.390;2023-03-14T08:31:22;98373.78;;;10.58;73.16
76627;BME280;65519;53.230;10.390;2023-03-14T08:33:47;98372.47;;;10.65;72.74
76627;BME280;65519;53.230;10.390;2023-03-14T08:36:12;98371.53;;;10.60;72.55
76627;BME280;65519;53.230;10.390;2023-03-14T08:38:38;98366.88;;;10.70;72.86
76627;BME280;65519;53.230;10.390;2023-03-14T08:41:03;98377.72;;;10.78;71.70
76627;BME280;65519;53.230;10.390;2023-03-14T08:43:30;98358.97;;;10.77;70.89
76627;BME280;65519;53.230;10.390;2023-03-14T08:45:59;98365.66;;;10.88;70.41
76627;BME280;65519;53.230;10.390;2023-03-14T08:48:25;98379.78;;;10.90;69.62
76627;BME280;65519;53.230;10.390;2023-03-14T08:50:50;98374.06;;;11.04;69.56
76627;BME280;65519;53.230;10.390;2023-03-14T08:53:15;98351.13;;;11.05;70.44
76627;BME280;65519;53.230;10.390;2023-03-14T08:55:41;98348.09;;;11.06;69.30
76627;BME280;65519;53.230;10.390;2023-03-14T08:58:06;98348.44;;;11.25;68.73
76627;BME280;65519;53.230;10.390;2023-03-14T09:00:32;98347.16;;;11.31;68.23
76627;BME280;65519;53.230;10.390;2023-03-14T09:02:57;98347.97;;;11.53;67.96
76627;BME280;65519;53.230;10.390;2023-03-14T09:05:22;98348.53;;;11.58;66.95
76627;BME280;65519;53.230;10.390;2023-03-14T09:07:48;98350.88;;;11.77;66.48
76627;BME280;65519;53.230;10.390;2023-03-14T09:10:13;98356.81;;;11.70;67.09
76627;BME280;65519;53.230;10.390;2023-03-14T09:12:38;98366.25;;;11.73;66.97
76627;BME280;65519;53.230;10.390;2023-03-14T09:15:04;98351.88;;;11.64;65.69
76627;BME280;65519;53.230;10.390;2023-03-14T09:17:30;98353.34;;;11.61;66.19
76627;BME280;65519;53.230;10.390;2023-03-14T09:19:55;98353.88;;;11.55;65.92
76627;BME280;65519;53.230;10.390;2023-03-14T09:22:21;98356.47;;;11.51;65.79
76627;BME280;65519;53.230;10.390;2023-03-14T09:24:46;98356.94;;;11.53;65.73
76627;BME280;65519;53.230;10.390;2023-03-14T09:27:12;98372.59;;;11.65;65.08
76627;BME280;65519;53.230;10.390;2023-03-14T09:29:37;98362.19;;;11.58;65.18
76627;BME280;65519;53.230;10.390;2023-03-14T09:32:02;98363.19;;;11.54;64.66
76627;BME280;65519;53.230;10.390;2023-03-14T09:34:28;98368.19;;;11.52;65.17
76627;BME280;65519;53.230;10.390;2023-03-14T09:36:54;98361.59;;;11.53;65.51
76627;BME280;65519;53.230;10.390;2023-03-14T09:39:19;98364.47;;;11.56;64.95
76627;BME280;65519;53.230;10.390;2023-03-14T09:41:47;98364.25;;;11.61;64.78
76627;BME280;65519;53.230;10.390;2023-03-14T09:44:37;98362.34;;;11.62;64.19
76627;BME280;65519;53.230;10.390;2023-03-14T09:47:06;98364.59;;;11.60;64.04
76627;BME280;65519;53.230;10.390;2023-03-14T09:49:42;98353.81;;;11.63;63.59
76627;BME280;65519;53.230;10.390;2023-03-14T09:52:14;98351.75;;;11.60;64.22
76627;BME280;65519;53.230;10.390;2023-03-14T09:57:15;98360.75;;;11.82;64.83
76627;BME280;65519;53.230;10.390;2023-03-14T09:59:44;98364.50;;;11.77;64.44
76627;BME280;65519;53.230;10.390;2023-03-14T10:02:24;98365.22;;;11.86;64.79
76627;BME280;65519;53.230;10.390;2023-03-14T10:04:52;98359.09;;;12.10;63.79
76627;BME280;65519;53.230;10.390;2023-03-14T10:07:19;98359.06;;;11.77;63.35
76627;BME280;65519;53.230;10.390;2023-03-14T10:09:49;98360.47;;;11.75;63.72
76627;BME280;65519;53.230;10.390;2023-03-14T10:12:16;98353.69;;;11.81;64.00
76627;BME280;65519;53.230;10.390;2023-03-14T10:14:48;98359.44;;;11.88;64.00
76627;BME280;65519;53.230;10.390;2023-03-14T10:17:15;98363.31;;;11.87;64.54
76627;BME280;65519;53.230;10.390;2023-03-14T10:19:56;98372.47;;;11.82;64.28
76627;BME280;65519;53.230;10.390;2023-03-14T10:22:29;98369.53;;;11.66;65.06
76627;BME280;65519;53.230;10.390;2023-03-14T10:25:06;98376.53;;;11.55;65.70
76627;BME280;65519;53.230;10.390;2023-03-14T10:27:34;98383.66;;;11.39;67.21
76627;BME280;65519;53.230;10.390;2023-03-14T10:30:03;98401.06;;;11.26;70.82
76627;BME280;65519;53.230;10.390;2023-03-14T10:32:36;98410.25;;;10.83;71.12
76627;BME280;65519;53.230;10.390;2023-03-14T10:35:11;98427.00;;;10.56;74.73
76627;BME280;65519;53.230;10.390;2023-03-14T10:38:02;98427.69;;;10.36;76.14
76627;BME280;65519;53.230;10.390;2023-03-14T10:40:34;98422.38;;;10.13;77.64
76627;BME280;65519;53.230;10.390;2023-03-14T10:43:05;98420.94;;;9.99;78.14
76627;BME280;65519;53.230;10.390;2023-03-14T10:47:59;98436.00;;;10.05;79.67
76627;BME280;65519;53.230;10.390;2023-03-14T10:50:31;98438.56;;;10.01;79.72
76627;BME280;65519;53.230;10.390;2023-03-14T10:52:57;98449.75;;;10.08;79.46
76627;BME280;65519;53.230;10.390;2023-03-14T10:55:25;98496.81;;;9.83;81.36
76627;BME280;65519;53.230;10.390;2023-03-14T10:57:51;98519.84;;;9.77;79.80
76627;BME280;65519;53.230;10.390;2023-03-14T11:00:22;98527.66;;;9.70;79.80
76627;BME280;65519;53.230;10.390;2023-03-14T11:03:12;98531.25;;;9.39;79.49
76627;BME280;65519;53.230;10.390;2023-03-14T11:05:41;98554.72;;;9.35;78.42
76627;BME280;65519;53.230;10.390;2023-03-14T11:10:47;98558.03;;;8.70;76.47
76627;BME280;65519;53.230;10.390;2023-03-14T11:13:46;98570.53;;;8.22;76.04
76627;BME280;65519;53.230;10.390;2023-03-14T11:16:43;98578.56;;;8.13;77.88
76627;BME280;65519;53.230;10.390;2023-03-14T11:19:34;98590.41;;;8.31;77.28
76627;BME280;65519;53.230;10.390;2023-03-14T11:35:44;98674.41;;;7.54;79.09
76627;BME280;65519;53.230;10.390;2023-03-14T11:41:17;98695.66;;;7.14;79.43
76627;BME280;65519;53.230;10.390;2023-03-14T11:43:48;98712.72;;;7.33;78.87
76627;BME280;65519;53.230;10.390;2023-03-14T11:46:26;98734.66;;;7.51;78.51
76627;BME280;65519;53.230;10.390;2023-03-14T11:51:29;98748.75;;;7.34;75.23
76627;BME280;65519;53.230;10.390;2023-03-14T12:02:00;98800.09;;;6.40;73.54
76627;BME280;65519;53.230;10.390;2023-03-14T12:04:39;98809.47;;;6.72;74.06
76627;BME280;65519;53.230;10.390;2023-03-14T12:07:21;98819.97;;;6.54;74.33
76627;BME280;65519;53.230;10.390;2023-03-14T12:09:49;98820.50;;;6.56;73.71
76627;BME280;65519;53.230;10.390;2023-03-14T12:12:22;98825.22;;;6.17;73.14
76627;BME280;65519;53.230;10.390;2023-03-14T12:14:57;98840.00;;;6.53;73.58
76627;BME280;65519;53.230;10.390;2023-03-14T12:17:39;98843.78;;;6.29;73.56
76627;BME280;65519;53.230;10.390;2023-03-14T12:20:16;98855.84;;;6.41;73.09
76627;BME280;65519;53.230;10.390;2023-03-14T12:27:47;98886.28;;;6.28;74.40
76627;BME280;65519;53.230;10.390;2023-03-14T12:35:45;98916.91;;;6.23;73.63
76627;BME280;65519;53.230;10.390;2023-03-14T12:43:34;98948.66;;;5.69;73.41
76627;BME280;65519;53.230;10.390;2023-03-14T12:49:04;98967.94;;;5.96;73.48
76627;BME280;65519;53.230;10.390;2023-03-14T13:04:34;98992.66;;;5.79;72.25
76627;BME280;65519;53.230;10.390;2023-03-14T13:07:02;98997.91;;;6.10;72.71
76627;BME280;65519;53.230;10.390;2023-03-14T13:12:11;99026.91;;;5.99;71.75
76627;BME280;65519;53.230;10.390;2023-03-14T13:14:43;99034.22;;;5.99;70.65
76627;BME280;65519;53.230;10.390;2023-03-14T13:17:11;99031.78;;;5.97;71.61
76627;BME280;65519;53.230;10.390;2023-03-14T13:19:36;99041.66;;;6.17;70.76
76627;BME280;65519;53.230;10.390;2023-03-14T13:22:12;99042.72;;;6.21;71.16
76627;BME280;65519;53.230;10.390;2023-03-14T13:24:40;99050.84;;;6.26;69.28
76627;BME280;65519;53.230;10.390;2023-03-14T13:27:17;99048.28;;;6.40;70.49
76627;BME280;65519;53.230;10.390;2023-03-14T13:29:44;99057.72;;;6.47;70.34
76627;BME280;65519;53.230;10.390;2023-03-14T13:32:18;99062.25;;;6.57;69.52
76627;BME280;65519;53.230;10.390;2023-03-14T13:34:44;99059.44;;;6.33;69.41
76627;BME280;65519;53.230;10.390;2023-03-14T13:37:25;99060.94;;;6.49;69.11
76627;BME280;65519;53.230;10.390;2023-03-14T13:39:56;99050.69;;;6.46;70.91
76627;BME280;65519;53.230;10.390;2023-03-14T13:42:26;99079.88;;;6.10;70.75
76627;BME280;65519;53.230;10.390;2023-03-14T13:44:56;99074.13;;;6.22;73.11
76627;BME280;65519;53.230;10.390;2023-03-14T13:47:24;99079.31;;;6.13;73.20
76627;BME280;65519;53.230;10.390;2023-03-14T13:49:51;99081.88;;;5.90;73.52
76627;BME280;65519;53.230;10.390;2023-03-14T13:52:35;99093.72;;;5.99;73.81
76627;BME280;65519;53.230;10.390;2023-03-14T13:55:01;99098.84;;;5.95;73.54
76627;BME280;65519;53.230;10.390;2023-03-14T14:00:21;99121.94;;;6.32;73.16
76627;BME280;65519;53.230;10.390;2023-03-14T14:02:49;99138.97;;;6.37;71.05
76627;BME280;65519;53.230;10.390;2023-03-14T14:05:15;99127.38;;;6.71;69.41
76627;BME280;65519;53.230;10.390;2023-03-14T14:07:43;99147.44;;;6.70;69.28
76627;BME280;65519;53.230;10.390;2023-03-14T14:10:11;99162.56;;;6.71;68.79
76627;BME280;65519;53.230;10.390;2023-03-14T14:13:02;99158.91;;;6.56;66.11